createdAt,value
2022-09-17T00:00:02.586Z,99961.77
2022-09-17T00:00:33.011Z,99967.91
2022-09-17T00:01:03.428Z,99966.27
2022-09-17T00:01:33.900Z,99965.41
2022-09-17T00:02:04.347Z,99968.41
2022-09-17T00:02:34.759Z,99966.03
2022-09-17T00:03:05.177Z,99963.83
2022-09-17T00:03:35.570Z,99964.69
2022-09-17T00:04:06.019Z,99963.91
2022-09-17T00:04:36.441Z,99969.27
2022-09-17T00:05:06.861Z,99967.61
2022-09-17T00:05:37.291Z,99967.78
2022-09-17T00:06:07.712Z,99966.76
2022-09-17T00:06:38.130Z,99971.61
2022-09-17T00:07:08.549Z,99969.09
2022-09-17T00:07:38.968Z,99976.14
2022-09-17T00:08:09.508Z,99967.74
2022-09-17T00:08:39.870Z,99968.57
2022-09-17T00:09:10.304Z,99978.31
2022-09-17T00:09:40.720Z,99971.31
2022-09-17T00:10:11.141Z,99973.13
2022-09-17T00:10:41.559Z,99973.25
2022-09-17T00:11:11.978Z,99968.26
2022-09-17T00:11:42.397Z,99968.26
2022-09-17T00:12:12.822Z,99969.95
2022-09-17T00:12:43.246Z,99974.64
2022-09-17T00:13:13.656Z,99971.78
2022-09-17T00:13:44.079Z,99975.64
2022-09-17T00:14:14.513Z,99973.61
2022-09-17T00:14:44.930Z,99978.62
2022-09-17T00:15:15.348Z,99974.81
2022-09-17T00:15:45.848Z,99978.67
2022-09-17T00:16:16.341Z,99984.02
2022-09-17T00:16:46.734Z,99984.69
2022-09-17T00:17:17.155Z,99986.69
2022-09-17T00:17:47.574Z,99983.34
2022-09-17T00:18:17.996Z,99987.86
2022-09-17T00:18:48.417Z,99984.56
2022-09-17T00:19:18.852Z,99989.85
2022-09-17T00:19:49.273Z,99991.82
2022-09-17T00:20:19.698Z,99991.62
2022-09-17T00:20:50.113Z,99983.47
2022-09-17T00:21:20.533Z,99987.14
2022-09-17T00:21:50.953Z,99988.65
2022-09-17T00:22:21.377Z,99991.28
2022-09-17T00:22:51.791Z,99992.62
2022-09-17T00:23:22.323Z,99992.83
2022-09-17T00:23:52.677Z,99990.12
2022-09-17T00:24:23.113Z,99996.46
2022-09-17T00:24:53.533Z,99994.45
2022-09-17T00:25:23.955Z,99997.47
2022-09-17T00:25:54.374Z,99997.17
2022-09-17T00:26:24.794Z,99996.80
2022-09-17T00:26:55.219Z,99998.52
2022-09-17T00:27:25.639Z,99993.98
2022-09-17T00:27:56.062Z,99994.38
2022-09-17T00:28:26.482Z,99994.86
2022-09-17T00:28:56.903Z,99994.65
2022-09-17T00:29:27.333Z,99997.85
2022-09-17T00:29:57.756Z,99998.53
2022-09-17T00:30:28.177Z,100000.18
2022-09-17T00:30:58.670Z,99999.88
2022-09-17T00:31:29.095Z,100003.05
2022-09-17T00:31:59.578Z,100002.56
2022-09-17T00:32:29.995Z,100000.31
2022-09-17T00:33:00.415Z,100003.33
2022-09-17T00:33:30.839Z,100004.83
2022-09-17T00:34:01.256Z,100002.03
2022-09-17T00:34:31.684Z,100004.70
2022-09-17T00:35:02.110Z,100005.55
2022-09-17T00:35:32.533Z,100002.72
2022-09-17T00:36:02.954Z,100002.91
2022-09-17T00:36:33.372Z,100003.91
2022-09-17T00:37:03.798Z,100002.73
2022-09-17T00:37:34.213Z,100004.24
2022-09-17T00:38:04.635Z,100001.25
2022-09-17T00:38:35.173Z,100001.73
2022-09-17T00:39:05.526Z,100005.88
2022-09-17T00:39:35.952Z,100005.42
2022-09-17T00:40:06.411Z,100001.22
2022-09-17T00:40:36.860Z,100007.25
2022-09-17T00:41:07.296Z,100011.06
2022-09-17T00:41:37.704Z,100002.72
2022-09-17T00:42:08.126Z,100002.08
2022-09-17T00:42:38.548Z,100007.08
2022-09-17T00:43:08.969Z,100003.59
2022-09-17T00:43:39.388Z,100007.26
2022-09-17T00:44:09.809Z,100007.14
2022-09-17T00:44:40.252Z,100007.14
2022-09-17T00:45:10.670Z,100008.28
2022-09-17T00:45:41.092Z,100010.58
2022-09-17T00:46:11.562Z,100011.08
2022-09-17T00:46:41.999Z,100011.85
2022-09-17T00:47:12.415Z,100008.06
2022-09-17T00:47:42.836Z,100015.78
2022-09-17T00:48:13.268Z,100012.91
2022-09-17T00:48:43.679Z,100011.42
2022-09-17T00:49:14.103Z,100010.97
2022-09-17T00:49:44.542Z,100011.33
2022-09-17T00:50:14.959Z,100015.12
2022-09-17T00:50:45.378Z,100013.62
2022-09-17T00:51:15.802Z,100011.63
2022-09-17T00:51:46.218Z,100017.62
2022-09-17T00:52:16.638Z,100015.98
2022-09-17T00:52:47.059Z,100014.67
2022-09-17T00:53:17.479Z,100015.35
2022-09-17T00:53:48.025Z,100014.02
2022-09-17T00:54:18.369Z,100014.36
2022-09-17T00:54:48.807Z,100019.55
2022-09-17T00:55:19.229Z,100017.72
2022-09-17T00:55:49.649Z,100015.86
2022-09-17T00:56:20.070Z,100020.39
2022-09-17T00:56:50.490Z,100017.04
2022-09-17T00:57:20.917Z,100015.00
2022-09-17T00:57:51.344Z,100018.51
2022-09-17T00:58:21.762Z,100018.68
2022-09-17T00:58:52.183Z,100018.64
2022-09-17T00:59:22.603Z,100019.46
2022-09-17T00:59:53.036Z,100023.97
2022-09-17T01:00:23.458Z,100019.97
2022-09-17T01:00:54.011Z,100021.92
2022-09-17T01:01:24.463Z,100021.46
2022-09-17T01:01:54.938Z,100025.81
2022-09-17T01:02:25.403Z,100021.66
2022-09-17T01:02:55.774Z,100022.34
2022-09-17T01:03:26.195Z,100024.86
2022-09-17T01:03:56.615Z,100024.03
2022-09-17T01:04:27.034Z,100025.34
2022-09-17T01:04:57.482Z,100022.06
2022-09-17T01:05:27.903Z,100024.36
2022-09-17T01:05:58.321Z,100025.38
2022-09-17T01:06:28.749Z,100019.89
2022-09-17T01:06:59.165Z,100024.87
2022-09-17T01:07:29.589Z,100026.87
2022-09-17T01:08:00.004Z,100023.57
2022-09-17T01:08:30.427Z,100022.41
2022-09-17T01:09:00.968Z,100027.25
2022-09-17T01:09:31.310Z,100026.52
2022-09-17T01:10:01.748Z,100028.34
2022-09-17T01:10:32.168Z,100027.17
2022-09-17T01:11:02.587Z,100030.14
2022-09-17T01:11:33.010Z,100032.52
2022-09-17T01:12:03.429Z,100031.52
2022-09-17T01:12:33.849Z,100031.83
2022-09-17T01:13:04.269Z,100029.00
2022-09-17T01:13:34.724Z,100026.04
2022-09-17T01:14:05.114Z,100021.38
2022-09-17T01:14:35.542Z,100030.73
2022-09-17T01:15:05.978Z,100026.41
2022-09-17T01:15:36.398Z,100028.88
2022-09-17T01:16:06.871Z,100030.05
2022-09-17T01:16:37.319Z,100027.88
2022-09-17T01:17:07.681Z,100032.55
2022-09-17T01:17:38.101Z,100033.20
2022-09-17T01:18:08.522Z,100033.04
2022-09-17T01:18:38.939Z,100030.05
2022-09-17T01:19:09.367Z,100033.23
2022-09-17T01:19:39.795Z,100032.68
2022-09-17T01:20:10.240Z,100030.89
2022-09-17T01:20:40.658Z,100032.06
2022-09-17T01:21:11.089Z,100033.23
2022-09-17T01:21:41.508Z,100029.06
2022-09-17T01:22:11.928Z,100031.91
2022-09-17T01:22:42.348Z,100035.77
2022-09-17T01:23:12.769Z,100034.62
2022-09-17T01:23:43.195Z,100032.80
2022-09-17T01:24:13.725Z,100030.44
2022-09-17T01:24:44.067Z,100037.77
2022-09-17T01:25:14.501Z,100036.56
2022-09-17T01:25:44.923Z,100035.40
2022-09-17T01:26:15.341Z,100039.27
2022-09-17T01:26:45.763Z,100037.08
2022-09-17T01:27:16.184Z,100036.10
2022-09-17T01:27:46.605Z,100034.59
2022-09-17T01:28:17.020Z,100038.16
2022-09-17T01:28:47.439Z,100036.74
2022-09-17T01:29:17.857Z,100037.47
2022-09-17T01:29:48.285Z,100035.81
2022-09-17T01:30:18.718Z,100039.81
2022-09-17T01:30:49.137Z,100037.17
2022-09-17T01:31:19.635Z,100040.81
2022-09-17T01:31:50.100Z,100039.96
2022-09-17T01:32:20.480Z,100041.77
2022-09-17T01:32:50.898Z,100040.77
2022-09-17T01:33:21.319Z,100042.11
2022-09-17T01:33:51.745Z,100037.47
2022-09-17T01:34:22.165Z,100037.65
2022-09-17T01:34:52.586Z,100037.17
2022-09-17T01:35:23.023Z,100039.51
2022-09-17T01:35:53.444Z,100037.81
2022-09-17T01:36:23.863Z,100033.99
2022-09-17T01:36:54.283Z,100040.98
2022-09-17T01:37:27.761Z,100039.84
2022-09-17T01:38:00.025Z,100038.49
2022-09-17T01:38:30.443Z,100034.98
2022-09-17T01:39:00.869Z,100041.29
2022-09-17T01:39:31.409Z,100043.47
2022-09-17T01:40:01.837Z,100043.01
2022-09-17T01:40:32.285Z,100038.78
2022-09-17T01:41:02.676Z,100041.84
2022-09-17T01:41:33.097Z,100046.98
2022-09-17T01:42:03.516Z,100041.80
2022-09-17T01:42:33.936Z,100043.97
2022-09-17T01:43:04.356Z,100041.09
2022-09-17T01:43:34.774Z,100045.25
2022-09-17T01:44:05.194Z,100046.98
2022-09-17T01:44:35.612Z,100047.14
2022-09-17T01:45:06.035Z,100045.85
2022-09-17T01:45:36.469Z,100049.89
2022-09-17T01:46:06.938Z,100049.34
2022-09-17T01:46:37.343Z,100049.36
2022-09-17T01:47:07.744Z,100050.88
2022-09-17T01:47:38.170Z,100051.05
2022-09-17T01:48:08.592Z,100048.65
2022-09-17T01:48:39.010Z,100048.30
2022-09-17T01:49:09.438Z,100049.95
2022-09-17T01:49:39.858Z,100049.12
2022-09-17T01:50:10.281Z,100050.10
2022-09-17T01:50:40.718Z,100054.44
2022-09-17T01:51:11.136Z,100051.80
2022-09-17T01:51:41.559Z,100051.27
2022-09-17T01:52:11.979Z,100049.24
2022-09-17T01:52:42.400Z,100052.65
2022-09-17T01:53:12.820Z,100051.99
2022-09-17T01:53:43.242Z,100051.18
2022-09-17T01:54:13.667Z,100048.80
2022-09-17T01:54:44.202Z,100052.50
2022-09-17T01:55:14.544Z,100053.80
2022-09-17T01:55:44.979Z,100053.48
2022-09-17T01:56:15.399Z,100053.97
2022-09-17T01:56:45.821Z,100056.45
2022-09-17T01:57:16.246Z,100057.45
2022-09-17T01:57:46.665Z,100054.98
2022-09-17T01:58:17.086Z,100053.83
2022-09-17T01:58:47.518Z,100053.19
2022-09-17T01:59:17.936Z,100053.20
2022-09-17T01:59:48.355Z,100055.70
2022-09-17T02:00:18.776Z,100056.41
2022-09-17T02:00:49.239Z,100051.73
2022-09-17T02:01:19.695Z,100051.94
2022-09-17T02:01:50.117Z,100055.59
2022-09-17T02:02:20.561Z,100052.56
2022-09-17T02:02:50.982Z,100055.24
2022-09-17T02:03:21.402Z,100059.09
2022-09-17T02:03:51.823Z,100057.56
2022-09-17T02:04:22.242Z,100057.56
2022-09-17T02:04:52.660Z,100059.56
2022-09-17T02:05:23.078Z,100058.08
2022-09-17T02:05:53.522Z,100056.84
2022-09-17T02:06:23.940Z,100057.03
2022-09-17T02:06:54.367Z,100057.01
2022-09-17T02:07:24.785Z,100059.90
2022-09-17T02:07:55.212Z,100061.25
2022-09-17T02:08:25.629Z,100057.25
2022-09-17T02:08:56.052Z,100052.91
2022-09-17T02:09:26.471Z,100057.06
2022-09-17T02:09:57.007Z,100058.09
2022-09-17T02:10:27.352Z,100057.75
2022-09-17T02:10:57.786Z,100057.73
2022-09-17T02:11:28.201Z,100063.73
2022-09-17T02:11:58.621Z,100057.11
2022-09-17T02:12:29.041Z,100058.09
2022-09-17T02:12:59.460Z,100054.89
2022-09-17T02:13:29.881Z,100057.73
2022-09-17T02:14:00.302Z,100058.28
2022-09-17T02:14:30.732Z,100059.11
2022-09-17T02:15:01.151Z,100059.48
2022-09-17T02:15:31.576Z,100059.77
2022-09-17T02:16:02.059Z,100059.32
2022-09-17T02:16:32.549Z,100061.83
2022-09-17T02:17:02.913Z,100057.48
2022-09-17T02:17:33.334Z,100059.90
2022-09-17T02:18:03.753Z,100058.89
2022-09-17T02:18:34.175Z,100057.55
2022-09-17T02:19:04.605Z,100061.38
2022-09-17T02:19:35.025Z,100059.08
2022-09-17T02:20:05.452Z,100061.06
2022-09-17T02:20:35.865Z,100061.59
2022-09-17T02:21:06.302Z,100060.91
2022-09-17T02:21:36.720Z,100062.40
2022-09-17T02:22:07.142Z,100061.92
2022-09-17T02:22:37.563Z,100061.59
2022-09-17T02:23:07.985Z,100061.39
2022-09-17T02:23:38.403Z,100064.27
2022-09-17T02:24:08.825Z,100062.11
2022-09-17T02:24:39.250Z,100063.61
2022-09-17T02:25:09.799Z,100063.28
2022-09-17T02:25:40.152Z,100064.93
2022-09-17T02:26:10.585Z,100062.89
2022-09-17T02:26:41.006Z,100063.59
2022-09-17T02:27:11.426Z,100061.45
2022-09-17T02:27:41.849Z,100061.00
2022-09-17T02:28:12.266Z,100062.86
2022-09-17T02:28:42.698Z,100063.70
2022-09-17T02:29:13.105Z,100059.33
2022-09-17T02:29:43.527Z,100063.48
2022-09-17T02:30:13.953Z,100058.98
2022-09-17T02:30:44.375Z,100059.27
2022-09-17T02:31:14.914Z,100061.75
2022-09-17T02:31:45.373Z,100061.38
2022-09-17T02:32:15.752Z,100062.22
2022-09-17T02:32:46.170Z,100059.88
2022-09-17T02:33:16.593Z,100060.23
2022-09-17T02:33:47.012Z,100059.88
2022-09-17T02:34:17.430Z,100060.42
2022-09-17T02:34:47.859Z,100058.28
2022-09-17T02:35:18.277Z,100061.75
2022-09-17T02:35:48.697Z,100059.28
2022-09-17T02:36:19.133Z,100061.44
2022-09-17T02:36:49.551Z,100059.48
2022-09-17T02:37:19.978Z,100059.32
2022-09-17T02:37:50.396Z,100061.97
2022-09-17T02:38:20.820Z,100058.10
2022-09-17T02:38:51.241Z,100060.78
2022-09-17T02:39:21.659Z,100059.98
2022-09-17T02:39:52.169Z,100063.02
2022-09-17T02:40:22.686Z,100058.34
2022-09-17T02:40:53.061Z,100060.70
2022-09-17T02:41:23.506Z,100060.03
2022-09-17T02:41:53.929Z,100060.67
2022-09-17T02:42:24.351Z,100062.28
2022-09-17T02:42:54.771Z,100058.61
2022-09-17T02:43:25.200Z,100058.75
2022-09-17T02:43:55.623Z,100058.75
2022-09-17T02:44:26.058Z,100057.08
2022-09-17T02:44:56.479Z,100056.75
2022-09-17T02:45:26.906Z,100060.43
2022-09-17T02:45:57.320Z,100056.10
2022-09-17T02:46:27.774Z,100055.13
2022-09-17T02:46:58.260Z,100057.31
2022-09-17T02:47:28.632Z,100054.02
2022-09-17T02:47:59.054Z,100057.94
2022-09-17T02:48:29.466Z,100055.58
2022-09-17T02:48:59.903Z,100057.42
2022-09-17T02:49:30.304Z,100058.06
2022-09-17T02:50:00.737Z,100054.91
2022-09-17T02:50:31.140Z,100055.08
2022-09-17T02:51:01.561Z,100058.65
2022-09-17T02:51:32.007Z,100055.66
2022-09-17T02:52:02.431Z,100057.33
2022-09-17T02:52:32.845Z,100054.20
2022-09-17T02:53:03.264Z,100054.07
2022-09-17T02:53:33.685Z,100056.91
2022-09-17T02:54:04.103Z,100053.50
2022-09-17T02:54:34.525Z,100056.14
2022-09-17T02:55:04.947Z,100055.36
2022-09-17T02:55:35.481Z,100056.97
2022-09-17T02:56:05.831Z,100055.28
2022-09-17T02:56:36.262Z,100059.94
2022-09-17T02:57:06.680Z,100053.78
2022-09-17T02:57:37.105Z,100056.98
2022-09-17T02:58:07.522Z,100051.95
2022-09-17T02:58:37.941Z,100052.49
2022-09-17T02:59:08.362Z,100051.30
2022-09-17T02:59:38.784Z,100052.77
2022-09-17T03:00:09.204Z,100053.08
2022-09-17T03:00:39.673Z,100058.61
2022-09-17T03:01:10.114Z,100056.80
2022-09-17T03:01:40.556Z,100057.99
2022-09-17T03:02:10.997Z,100055.64
2022-09-17T03:02:41.358Z,100054.33
2022-09-17T03:03:11.780Z,100055.52
2022-09-17T03:03:42.198Z,100055.52
2022-09-17T03:04:12.628Z,100056.88
2022-09-17T03:04:43.049Z,100052.89
2022-09-17T03:05:13.467Z,100052.34
2022-09-17T03:05:43.886Z,100052.64
2022-09-17T03:06:14.308Z,100051.95
2022-09-17T03:06:44.752Z,100049.58
2022-09-17T03:07:15.178Z,100052.96
2022-09-17T03:07:45.596Z,100054.80
2022-09-17T03:08:16.014Z,100052.28
2022-09-17T03:08:46.503Z,100051.96
2022-09-17T03:09:16.901Z,100054.14
2022-09-17T03:09:47.319Z,100049.11
2022-09-17T03:10:17.741Z,100048.28
2022-09-17T03:10:48.284Z,100050.11
2022-09-17T03:11:18.630Z,100048.28
2022-09-17T03:11:49.062Z,100052.31
2022-09-17T03:12:19.486Z,100052.64
2022-09-17T03:12:49.905Z,100051.58
2022-09-17T03:13:20.324Z,100052.08
2022-09-17T03:13:50.747Z,100054.91
2022-09-17T03:14:21.175Z,100054.74
2022-09-17T03:14:51.605Z,100050.42
2022-09-17T03:15:22.016Z,100053.08
2022-09-17T03:15:52.509Z,100052.77
2022-09-17T03:16:22.916Z,100052.26
2022-09-17T03:16:53.316Z,100052.10
2022-09-17T03:17:23.735Z,100056.10
2022-09-17T03:17:54.155Z,100053.80
2022-09-17T03:18:24.577Z,100049.23
2022-09-17T03:18:54.995Z,100050.91
2022-09-17T03:19:25.416Z,100053.73
2022-09-17T03:19:55.840Z,100050.58
2022-09-17T03:20:26.254Z,100051.08
2022-09-17T03:20:56.679Z,100048.42
2022-09-17T03:21:27.104Z,100050.62
2022-09-17T03:21:57.540Z,100051.64
2022-09-17T03:22:27.957Z,100053.66
2022-09-17T03:22:58.377Z,100053.31
2022-09-17T03:23:28.799Z,100052.63
2022-09-17T03:23:59.215Z,100051.30
2022-09-17T03:24:29.636Z,100053.28
2022-09-17T03:25:00.062Z,100051.20
2022-09-17T03:25:30.480Z,100052.42
2022-09-17T03:26:01.017Z,100052.41
2022-09-17T03:26:31.358Z,100051.73
2022-09-17T03:27:01.786Z,100054.73
2022-09-17T03:27:32.208Z,100053.03
2022-09-17T03:28:02.627Z,100054.20
2022-09-17T03:28:33.115Z,100056.57
2022-09-17T03:29:03.481Z,100052.58
2022-09-17T03:29:33.902Z,100053.44
2022-09-17T03:30:04.317Z,100051.94
2022-09-17T03:30:34.735Z,100055.97
2022-09-17T03:31:05.211Z,100053.14
2022-09-17T03:31:35.691Z,100056.81
2022-09-17T03:32:06.112Z,100052.47
2022-09-17T03:32:36.532Z,100057.16
2022-09-17T03:33:06.953Z,100053.64
2022-09-17T03:33:37.372Z,100052.99
2022-09-17T03:34:07.797Z,100051.95
2022-09-17T03:34:38.220Z,100055.30
2022-09-17T03:35:08.637Z,100056.84
2022-09-17T03:35:39.058Z,100059.33
2022-09-17T03:36:09.479Z,100059.84
2022-09-17T03:36:39.901Z,100055.48
2022-09-17T03:37:10.328Z,100051.84
2022-09-17T03:37:40.750Z,100057.69
2022-09-17T03:38:11.174Z,100055.37
2022-09-17T03:38:41.590Z,100058.38
2022-09-17T03:39:12.014Z,100058.07
2022-09-17T03:39:42.434Z,100056.67
2022-09-17T03:40:12.935Z,100058.50
2022-09-17T03:40:43.314Z,100060.81
2022-09-17T03:41:13.851Z,100060.31
2022-09-17T03:41:44.193Z,100061.13
2022-09-17T03:42:14.633Z,100061.45
2022-09-17T03:42:45.051Z,100064.16
2022-09-17T03:43:15.468Z,100063.36
2022-09-17T03:43:45.887Z,100061.03
2022-09-17T03:44:16.310Z,100060.86
2022-09-17T03:44:46.728Z,100057.52
2022-09-17T03:45:17.152Z,100058.07
2022-09-17T03:45:47.568Z,100060.42
2022-09-17T03:46:18.038Z,100063.56
2022-09-17T03:46:48.533Z,100061.86
2022-09-17T03:47:18.901Z,100058.51
2022-09-17T03:47:49.321Z,100061.17
2022-09-17T03:48:19.738Z,100060.52
2022-09-17T03:48:50.158Z,100065.34
2022-09-17T03:49:20.579Z,100062.39
2022-09-17T03:49:50.998Z,100066.53
2022-09-17T03:50:21.417Z,100066.34
2022-09-17T03:50:51.833Z,100064.29
2022-09-17T03:51:22.258Z,100063.28
2022-09-17T03:51:52.682Z,100070.46
2022-09-17T03:52:23.121Z,100066.98
2022-09-17T03:52:53.540Z,100065.65
2022-09-17T03:53:23.968Z,100071.53
2022-09-17T03:53:54.380Z,100067.52
2022-09-17T03:54:24.797Z,100064.00
2022-09-17T03:54:55.218Z,100068.50
2022-09-17T03:55:25.639Z,100069.16
2022-09-17T03:55:56.056Z,100066.36
2022-09-17T03:56:26.604Z,100068.71
2022-09-17T03:56:56.968Z,100065.89
2022-09-17T03:57:27.410Z,100070.09
2022-09-17T03:57:57.838Z,100070.09
2022-09-17T03:58:28.261Z,100066.91
2022-09-17T03:58:58.819Z,100063.59
2022-09-17T03:59:29.236Z,100067.27
2022-09-17T03:59:59.659Z,100064.26
2022-09-17T04:00:30.080Z,100060.05
2022-09-17T04:01:00.497Z,100062.70
2022-09-17T04:01:30.948Z,100065.91
2022-09-17T04:02:01.427Z,100067.55
2022-09-17T04:02:31.963Z,100063.56
2022-09-17T04:03:02.432Z,100062.75
2022-09-17T04:03:32.810Z,100057.53
2022-09-17T04:04:03.232Z,100061.02
2022-09-17T04:04:33.648Z,100063.00
2022-09-17T04:05:04.078Z,100064.52
2022-09-17T04:05:34.489Z,100066.86
2022-09-17T04:06:04.910Z,100070.19
2022-09-17T04:06:35.326Z,100068.88
2022-09-17T04:07:05.755Z,100066.22
2022-09-17T04:07:36.353Z,100069.88
2022-09-17T04:08:06.781Z,100069.37
2022-09-17T04:08:37.197Z,100072.88
2022-09-17T04:09:07.617Z,100065.66
2022-09-17T04:09:38.036Z,100068.67
2022-09-17T04:10:08.466Z,100066.68
2022-09-17T04:10:38.880Z,100068.70
2022-09-17T04:11:09.299Z,100067.36
2022-09-17T04:11:39.830Z,100066.31
2022-09-17T04:12:10.182Z,100067.52
2022-09-17T04:12:40.615Z,100068.56
2022-09-17T04:13:11.035Z,100072.69
2022-09-17T04:13:41.454Z,100070.36
2022-09-17T04:14:11.876Z,100069.36
2022-09-17T04:14:42.295Z,100073.87
2022-09-17T04:15:12.719Z,100074.37
2022-09-17T04:15:43.215Z,100075.56
2022-09-17T04:16:13.664Z,100072.52
2022-09-17T04:16:44.048Z,100070.88
2022-09-17T04:17:14.470Z,100071.54
2022-09-17T04:17:44.903Z,100072.91
2022-09-17T04:18:15.329Z,100077.12
2022-09-17T04:18:45.750Z,100073.94
2022-09-17T04:19:16.173Z,100070.95
2022-09-17T04:19:46.593Z,100071.41
2022-09-17T04:20:17.011Z,100070.44
2022-09-17T04:20:47.439Z,100073.23
2022-09-17T04:21:17.852Z,100076.14
2022-09-17T04:21:48.269Z,100072.16
2022-09-17T04:22:18.694Z,100074.16
2022-09-17T04:22:49.305Z,100075.33
2022-09-17T04:23:19.721Z,100070.30
2022-09-17T04:23:50.139Z,100075.27
2022-09-17T04:24:20.561Z,100075.27
2022-09-17T04:24:50.979Z,100078.25
2022-09-17T04:25:21.398Z,100075.44
2022-09-17T04:25:51.830Z,100074.80
2022-09-17T04:26:22.250Z,100074.95
2022-09-17T04:26:52.790Z,100070.61
2022-09-17T04:27:23.142Z,100074.77
2022-09-17T04:27:53.580Z,100074.62
2022-09-17T04:28:23.999Z,100073.13
2022-09-17T04:28:54.419Z,100077.13
2022-09-17T04:29:24.839Z,100078.97
2022-09-17T04:29:55.262Z,100076.91
2022-09-17T04:30:25.680Z,100079.26
2022-09-17T04:30:56.158Z,100077.42
2022-09-17T04:31:26.586Z,100077.97
2022-09-17T04:31:56.953Z,100078.80
2022-09-17T04:32:27.374Z,100080.62
2022-09-17T04:32:57.810Z,100077.58
2022-09-17T04:33:28.229Z,100075.25
2022-09-17T04:33:58.841Z,100078.22
2022-09-17T04:34:29.227Z,100080.56
2022-09-17T04:34:59.651Z,100079.61
2022-09-17T04:35:30.075Z,100081.09
2022-09-17T04:36:00.492Z,100082.42
2022-09-17T04:36:30.909Z,100076.22
2022-09-17T04:37:01.331Z,100076.56
2022-09-17T04:37:31.746Z,100076.22
2022-09-17T04:38:02.186Z,100076.03
2022-09-17T04:38:32.603Z,100081.06
2022-09-17T04:39:03.023Z,100077.33
2022-09-17T04:39:33.442Z,100081.70
2022-09-17T04:40:07.738Z,100077.91
2022-09-17T04:40:38.667Z,100075.75
2022-09-17T04:41:09.057Z,100074.38
2022-09-17T04:41:39.473Z,100076.50
2022-09-17T04:42:10.015Z,100080.91
2022-09-17T04:42:40.364Z,100078.30
2022-09-17T04:43:10.800Z,100077.80
2022-09-17T04:43:41.222Z,100076.75
2022-09-17T04:44:11.640Z,100074.42
2022-09-17T04:44:42.069Z,100079.59
2022-09-17T04:45:12.480Z,100079.14
2022-09-17T04:45:42.900Z,100083.82
2022-09-17T04:46:13.383Z,100085.78
2022-09-17T04:46:43.798Z,100086.00
2022-09-17T04:47:14.186Z,100084.63
2022-09-17T04:47:44.606Z,100085.66
2022-09-17T04:48:15.041Z,100085.50
2022-09-17T04:48:45.462Z,100083.57
2022-09-17T04:49:15.882Z,100088.42
2022-09-17T04:49:46.297Z,100087.27
2022-09-17T04:50:16.721Z,100087.25
2022-09-17T04:50:47.139Z,100086.55
2022-09-17T04:51:17.557Z,100083.77
2022-09-17T04:51:47.977Z,100084.80
2022-09-17T04:52:18.397Z,100084.67
2022-09-17T04:52:48.815Z,100085.95
2022-09-17T04:53:19.254Z,100083.98
2022-09-17T04:53:49.671Z,100085.81
2022-09-17T04:54:20.104Z,100080.99
2022-09-17T04:54:50.529Z,100084.99
2022-09-17T04:55:20.948Z,100082.80
2022-09-17T04:55:51.364Z,100079.30
2022-09-17T04:56:21.788Z,100080.66
2022-09-17T04:56:52.209Z,100081.66
2022-09-17T04:57:22.744Z,100080.48
2022-09-17T04:57:53.096Z,100084.13
2022-09-17T04:58:23.531Z,100083.00
2022-09-17T04:58:53.952Z,100082.67
2022-09-17T04:59:24.377Z,100086.38
2022-09-17T04:59:54.798Z,100086.05
2022-09-17T05:00:25.217Z,100086.02
2022-09-17T05:00:55.666Z,100088.38
2022-09-17T05:01:26.136Z,100086.19
2022-09-17T05:01:56.668Z,100082.84
2022-09-17T05:02:27.082Z,100080.02
2022-09-17T05:02:57.472Z,100085.36
2022-09-17T05:03:27.917Z,100084.70
2022-09-17T05:03:58.417Z,100085.03
2022-09-17T05:04:28.823Z,100085.84
2022-09-17T05:04:59.241Z,100086.62
2022-09-17T05:05:29.658Z,100086.30
2022-09-17T05:06:00.080Z,100086.83
2022-09-17T05:06:30.498Z,100086.17
2022-09-17T05:07:00.920Z,100086.17
2022-09-17T05:07:31.341Z,100085.50
2022-09-17T05:08:01.775Z,100088.29
2022-09-17T05:08:32.209Z,100086.67
2022-09-17T05:09:02.630Z,100089.67
2022-09-17T05:09:33.047Z,100089.66
2022-09-17T05:10:03.468Z,100090.34
2022-09-17T05:10:33.887Z,100089.48
2022-09-17T05:11:04.309Z,100089.62
2022-09-17T05:11:34.727Z,100088.84
2022-09-17T05:12:05.146Z,100090.71
2022-09-17T05:12:35.679Z,100092.38
2022-09-17T05:13:06.024Z,100089.69
2022-09-17T05:13:36.474Z,100092.85
2022-09-17T05:14:06.893Z,100093.47
2022-09-17T05:14:37.313Z,100093.17
2022-09-17T05:15:07.730Z,100095.22
2022-09-17T05:15:38.156Z,100091.88
2022-09-17T05:16:08.625Z,100088.91
2022-09-17T05:16:39.015Z,100090.11
2022-09-17T05:17:09.435Z,100092.61
2022-09-17T05:17:39.853Z,100094.11
2022-09-17T05:18:10.271Z,100092.20
2022-09-17T05:18:40.712Z,100094.73
2022-09-17T05:19:11.132Z,100092.89
2022-09-17T05:19:41.549Z,100095.55
2022-09-17T05:20:11.968Z,100098.49
2022-09-17T05:20:42.401Z,100094.67
2022-09-17T05:21:12.824Z,100098.38
2022-09-17T05:21:43.246Z,100096.20
2022-09-17T05:22:15.006Z,100097.37
2022-09-17T05:22:47.676Z,100092.86
2022-09-17T05:23:18.087Z,100098.67
2022-09-17T05:23:48.529Z,100095.33
2022-09-17T05:24:18.947Z,100093.86
2022-09-17T05:24:49.365Z,100092.70
2022-09-17T05:25:19.786Z,100097.37
2022-09-17T05:25:50.206Z,100095.70
2022-09-17T05:26:20.630Z,100098.20
2022-09-17T05:26:51.051Z,100095.17
2022-09-17T05:27:21.478Z,100095.69
2022-09-17T05:27:52.018Z,100101.02
2022-09-17T05:28:22.360Z,100100.83
2022-09-17T05:28:52.787Z,100100.98
2022-09-17T05:29:23.209Z,100103.66
2022-09-17T05:29:53.632Z,100101.00
2022-09-17T05:30:24.052Z,100102.72
2022-09-17T05:30:54.513Z,100099.89
2022-09-17T05:31:24.937Z,100104.23
2022-09-17T05:31:55.319Z,100101.20
2022-09-17T05:32:25.738Z,100104.89
2022-09-17T05:32:56.159Z,100102.20
2022-09-17T05:33:26.575Z,100103.05
2022-09-17T05:33:57.005Z,100102.06
2022-09-17T05:34:27.426Z,100102.70
2022-09-17T05:34:57.851Z,100105.70
2022-09-17T05:35:28.272Z,100106.51
2022-09-17T05:35:58.690Z,100107.67
2022-09-17T05:36:29.108Z,100107.86
2022-09-17T05:36:59.530Z,100105.70
2022-09-17T05:37:29.950Z,100107.08
2022-09-17T05:38:00.368Z,100106.58
2022-09-17T05:38:30.788Z,100108.06
2022-09-17T05:39:01.224Z,100112.23
2022-09-17T05:39:31.644Z,100108.05
2022-09-17T05:40:02.242Z,100107.69
2022-09-17T05:40:32.757Z,100111.48
2022-09-17T05:41:03.195Z,100108.16
2022-09-17T05:41:33.614Z,100107.45
2022-09-17T05:42:04.033Z,100109.12
2022-09-17T05:42:34.464Z,100108.80
2022-09-17T05:43:05.002Z,100109.69
2022-09-17T05:43:35.353Z,100111.33
2022-09-17T05:44:05.942Z,100107.69
2022-09-17T05:44:36.359Z,100107.56
2022-09-17T05:45:06.779Z,100110.72
2022-09-17T05:45:37.197Z,100106.05
2022-09-17T05:46:07.647Z,100109.41
2022-09-17T05:46:38.094Z,100112.08
2022-09-17T05:47:08.475Z,100113.24
2022-09-17T05:47:38.900Z,100111.56
2022-09-17T05:48:09.322Z,100109.84